Time,TemperatureF,DewpointF,PressureIn,WindDirection,WindDirectionDegrees,WindSpeedMPH,WindSpeedGustMPH,Humidity,HourlyPrecipIn,Conditions,Clouds,dailyrainin,SoftwareType,DateUTC
2013-01-30 00:09:00,59.5,58.0,29.98,SSW,197,3.0,16.0,93,0.01,,,0.00,weatherlink.com 1.10,2013-01-30 05:09:00,
2013-01-30 00:24:00,59.9,58.0,29.98,SSE,163,10.0,21.0,93,0.02,,,0.01,weatherlink.com 1.10,2013-01-30 05:24:00,
2013-01-30 00:39:00,60.3,58.0,29.96,SSE,167,10.0,17.0,92,0.02,,,0.01,weatherlink.com 1.10,2013-01-30 05:39:00,
2013-01-30 00:54:00,60.6,58.0,29.95,South,172,9.0,18.0,91,0.02,,,0.01,weatherlink.com 1.10,2013-01-30 05:54:00,
2013-01-30 01:09:00,60.5,58.0,29.95,South,169,11.0,22.0,91,0.01,,,0.01,weatherlink.com 1.10,2013-01-30 06:09:00,
2013-01-30 01:24:00,60.5,58.0,29.95,SSE,167,11.0,22.0,91,0.00,,,0.01,weatherlink.com 1.10,2013-01-30 06:24:00,
2013-01-30 01:39:00,60.9,58.0,29.94,SW,217,6.0,21.0,90,0.00,,,0.01,weatherlink.com 1.10,2013-01-30 06:39:00,
2013-01-30 01:54:00,61.1,58.0,29.94,SE,143,18.0,21.0,89,0.00,,,0.01,weatherlink.com 1.10,2013-01-30 06:54:00,
2013-01-30 02:09:00,61.8,58.0,29.94,SE,135,9.0,20.0,86,0.00,,,0.01,weatherlink.com 1.10,2013-01-30 07:09:00,
2013-01-30 02:24:00,61.3,58.0,29.93,ESE,122,4.0,20.0,88,0.00,,,0.01,weatherlink.com 1.10,2013-01-30 07:24:00,
2013-01-30 02:39:00,61.3,57.0,29.91,SSE,158,12.0,24.0,87,0.00,,,0.01,weatherlink.com 1.10,2013-01-30 07:39:00,
2013-01-30 03:09:00,61.4,58.0,29.91,SSE,148,13.0,23.0,87,0.00,,,0.01,weatherlink.com 1.10,2013-01-30 08:09:00,
2013-01-30 03:24:00,61.6,57.0,29.90,SSE,158,9.0,22.0,85,0.00,,,0.01,weatherlink.com 1.10,2013-01-30 08:24:00,
2013-01-30 03:39:00,61.7,57.0,29.89,SSE,161,16.0,21.0,83,0.00,,,0.01,weatherlink.com 1.10,2013-01-30 08:39:00,
2013-01-30 03:54:00,61.2,56.0,29.88,SSE,153,15.0,23.0,84,0.00,,,0.01,weatherlink.com 1.10,2013-01-30 08:54:00,
2013-01-30 04:09:00,60.9,56.0,29.87,SSE,158,12.0,31.0,84,0.00,,,0.01,weatherlink.com 1.10,2013-01-30 09:09:00,
2013-01-30 04:24:00,60.1,56.0,29.86,SE,142,12.0,22.0,86,0.00,,,0.01,weatherlink.com 1.10,2013-01-30 09:24:00,
2013-01-30 04:40:00,59.9,56.0,29.86,SSE,150,5.0,22.0,87,0.01,,,0.02,weatherlink.com 1.10,2013-01-30 09:40:00,
2013-01-30 04:55:00,59.9,56.0,29.85,SSE,165,14.0,23.0,88,0.01,,,0.02,weatherlink.com 1.10,2013-01-30 09:55:00,
2013-01-30 05:10:00,61.2,57.0,29.84,SSE,158,10.0,25.0,85,0.01,,,0.02,weatherlink.com 1.10,2013-01-30 10:10:00,
2013-01-30 05:25:00,62.1,57.0,29.83,SSE,167,12.0,27.0,82,0.01,,,0.02,weatherlink.com 1.10,2013-01-30 10:25:00,
2013-01-30 05:40:00,62.3,57.0,29.83,SSE,155,17.0,25.0,82,0.00,,,0.02,weatherlink.com 1.10,2013-01-30 10:40:00,
2013-01-30 05:55:00,61.7,57.0,29.82,ESE,115,15.0,26.0,85,0.00,,,0.02,weatherlink.com 1.10,2013-01-30 10:55:00,
2013-01-30 06:10:00,61.1,58.0,29.82,South,169,24.0,24.0,88,0.00,,,0.02,weatherlink.com 1.10,2013-01-30 11:10:00,
2013-01-30 06:25:00,61.2,58.0,29.80,SE,131,9.0,30.0,88,0.00,,,0.02,weatherlink.com 1.10,2013-01-30 11:25:00,
2013-01-30 06:41:00,61.2,57.0,29.80,South,190,13.0,28.0,86,0.00,,,0.02,weatherlink.com 1.10,2013-01-30 11:41:00,
2013-01-30 06:55:00,61.6,57.0,29.80,SSE,150,13.0,30.0,84,0.00,,,0.02,weatherlink.com 1.10,2013-01-30 11:55:00,
2013-01-30 07:10:00,61.3,57.0,29.78,SSE,152,10.0,27.0,84,0.00,,,0.02,weatherlink.com 1.10,2013-01-30 12:10:00,
2013-01-30 07:25:00,61.4,57.0,29.78,SSE,155,17.0,30.0,85,0.00,,,0.02,weatherlink.com 1.10,2013-01-30 12:25:00,
2013-01-30 07:40:00,60.7,57.0,29.76,SSE,156,12.0,24.0,88,0.01,,,0.03,weatherlink.com 1.10,2013-01-30 12:40:00,
2013-01-30 07:55:00,61.3,58.0,29.76,South,183,10.0,28.0,88,0.01,,,0.03,weatherlink.com 1.10,2013-01-30 12:55:00,
2013-01-30 08:10:00,61.7,58.0,29.75,SE,128,13.0,27.0,88,0.01,,,0.03,weatherlink.com 1.10,2013-01-30 13:10:00,
2013-01-30 08:25:00,61.9,58.0,29.74,SE,143,12.0,24.0,88,0.01,,,0.03,weatherlink.com 1.10,2013-01-30 13:25:00,
2013-01-30 08:40:00,62.0,59.0,29.75,SSE,158,8.0,23.0,88,0.00,,,0.03,weatherlink.com 1.10,2013-01-30 13:40:00,
2013-01-30 08:55:00,61.7,59.0,29.75,SSE,159,10.0,21.0,89,0.00,,,0.03,weatherlink.com 1.10,2013-01-30 13:55:00,
2013-01-30 09:10:00,61.9,59.0,29.74,SSE,158,15.0,23.0,89,0.00,,,0.03,weatherlink.com 1.10,2013-01-30 14:10:00,
2013-01-30 09:25:00,61.9,59.0,29.74,SSE,149,14.0,23.0,89,0.00,,,0.03,weatherlink.com 1.10,2013-01-30 14:25:00,
2013-01-30 09:40:00,62.3,59.0,29.73,SSE,160,12.0,24.0,89,0.00,,,0.03,weatherlink.com 1.10,2013-01-30 14:40:00,
2013-01-30 09:55:00,62.8,59.0,29.71,SSE,164,13.0,29.0,88,0.00,,,0.03,weatherlink.com 1.10,2013-01-30 14:55:00,
2013-01-30 10:10:00,62.8,59.0,29.70,SSE,167,18.0,33.0,88,0.00,,,0.03,weatherlink.com 1.10,2013-01-30 15:10:00,
2013-01-30 10:25:00,63.1,60.0,29.69,SE,137,13.0,31.0,88,0.00,,,0.03,weatherlink.com 1.10,2013-01-30 15:25:00,
2013-01-30 10:40:00,62.9,59.0,29.70,SSE,161,16.0,31.0,88,0.00,,,0.03,weatherlink.com 1.10,2013-01-30 15:40:00,
2013-01-30 10:55:00,62.4,60.0,29.70,SSE,155,7.0,24.0,90,0.00,,,0.03,weatherlink.com 1.10,2013-01-30 15:55:00,
2013-01-30 11:10:00,62.6,59.0,29.68,SE,135,17.0,26.0,89,0.00,,,0.03,weatherlink.com 1.10,2013-01-30 16:10:00,
2013-01-30 11:25:00,63.3,60.0,29.68,SE,135,15.0,27.0,88,0.00,,,0.03,weatherlink.com 1.10,2013-01-30 16:25:00,
2013-01-30 11:40:00,63.5,60.0,29.66,SSE,162,19.0,24.0,88,0.00,,,0.03,weatherlink.com 1.10,2013-01-30 16:40:00,
2013-01-30 11:55:00,63.4,60.0,29.65,SSE,150,14.0,27.0,88,0.00,,,0.03,weatherlink.com 1.10,2013-01-30 16:55:00,
2013-01-30 12:10:00,62.7,60.0,29.64,South,170,22.0,26.0,89,0.00,,,0.03,weatherlink.com 1.10,2013-01-30 17:10:00,
2013-01-30 12:26:00,62.5,60.0,29.63,SE,138,23.0,26.0,90,0.00,,,0.03,weatherlink.com 1.10,2013-01-30 17:26:00,
2013-01-30 12:40:00,62.2,59.0,29.62,SSE,154,11.0,24.0,90,0.00,,,0.03,weatherlink.com 1.10,2013-01-30 17:40:00,
2013-01-30 12:56:00,62.3,59.0,29.61,SSE,155,11.0,24.0,90,0.00,,,0.03,weatherlink.com 1.10,2013-01-30 17:56:00,
2013-01-30 13:11:00,62.1,60.0,29.58,SSE,158,11.0,23.0,91,0.02,,,0.05,weatherlink.com 1.10,2013-01-30 18:11:00,
2013-01-30 13:26:00,62.0,59.0,29.56,South,179,11.0,18.0,91,0.03,,,0.06,weatherlink.com 1.10,2013-01-30 18:26:00,
2013-01-30 13:41:00,62.1,60.0,29.55,South,169,10.0,24.0,91,0.05,,,0.08,weatherlink.com 1.10,2013-01-30 18:41:00,
2013-01-30 13:56:00,62.4,60.0,29.54,South,172,10.0,22.0,91,0.07,,,0.10,weatherlink.com 1.10,2013-01-30 18:56:00,
2013-01-30 14:11:00,62.6,60.0,29.54,SSE,148,16.0,32.0,90,0.07,,,0.12,weatherlink.com 1.10,2013-01-30 19:11:00,
2013-01-30 14:27:00,61.8,59.0,29.59,WNW,285,6.0,19.0,89,0.27,,,0.33,weatherlink.com 1.10,2013-01-30 19:27:00,
2013-01-30 14:41:00,59.4,56.0,29.56,SW,225,1.0,8.0,89,0.35,,,0.43,weatherlink.com 1.10,2013-01-30 19:41:00,
2013-01-30 14:56:00,57.9,55.0,29.56,ENE,70,3.0,5.0,91,0.58,,,0.68,weatherlink.com 1.10,2013-01-30 19:56:00,
2013-01-30 15:11:00,56.9,55.0,29.56,SE,135,7.0,10.0,93,0.85,,,0.97,weatherlink.com 1.10,2013-01-30 20:11:00,
2013-01-30 15:26:00,56.5,55.0,29.54,East,100,2.0,10.0,94,0.93,,,1.23,weatherlink.com 1.10,2013-01-30 20:26:00,
2013-01-30 15:41:00,56.5,55.0,29.55,ENE,75,4.0,9.0,95,0.93,,,1.36,weatherlink.com 1.10,2013-01-30 20:41:00,
2013-01-30 15:56:00,56.3,55.0,29.53,ESE,108,2.0,4.0,95,0.73,,,1.41,weatherlink.com 1.10,2013-01-30 20:56:00,
2013-01-30 16:11:00,56.2,55.0,29.51,WSW,238,0.0,2.0,95,0.50,,,1.47,weatherlink.com 1.10,2013-01-30 21:11:00,
2013-01-30 16:26:00,56.0,55.0,29.52,SE,143,2.0,4.0,95,0.28,,,1.52,weatherlink.com 1.10,2013-01-30 21:26:00,
2013-01-30 16:41:00,56.0,55.0,29.47,NE,42,0.0,3.0,95,0.20,,,1.56,weatherlink.com 1.10,2013-01-30 21:41:00,
2013-01-30 16:56:00,56.0,55.0,29.49,SSE,149,1.0,3.0,95,0.19,,,1.60,weatherlink.com 1.10,2013-01-30 21:56:00,
2013-01-30 17:11:00,56.1,55.0,29.48,SE,132,2.0,7.0,96,0.18,,,1.65,weatherlink.com 1.10,2013-01-30 22:11:00,
2013-01-30 17:26:00,56.1,55.0,29.48,SE,142,2.0,4.0,95,0.19,,,1.71,weatherlink.com 1.10,2013-01-30 22:26:00,
2013-01-30 17:41:00,56.1,55.0,29.47,WNW,303,0.0,4.0,96,0.19,,,1.75,weatherlink.com 1.10,2013-01-30 22:41:00,
2013-01-30 17:56:00,56.0,55.0,29.47,SW,221,1.0,2.0,96,0.15,,,1.75,weatherlink.com 1.10,2013-01-30 22:56:00,
2013-01-30 18:11:00,56.0,55.0,29.46,SSE,158,3.0,5.0,96,0.13,,,1.78,weatherlink.com 1.10,2013-01-30 23:11:00,
2013-01-30 18:26:00,55.9,55.0,29.46,East,100,0.0,2.0,96,0.10,,,1.81,weatherlink.com 1.10,2013-01-30 23:26:00,
2013-01-30 18:41:00,55.9,55.0,29.47,NNW,330,1.0,4.0,97,0.08,,,1.83,weatherlink.com 1.10,2013-01-30 23:41:00,
2013-01-30 18:56:00,53.4,52.0,29.50,NNW,346,13.0,19.0,93,0.11,,,1.86,weatherlink.com 1.10,2013-01-30 23:56:00,
2013-01-30 19:11:00,50.4,49.0,29.49,North,359,9.0,21.0,94,0.13,,,1.91,weatherlink.com 1.10,2013-01-31 00:11:00,
2013-01-30 19:41:00,47.7,47.0,29.52,North,354,7.0,14.0,96,0.11,,,1.95,weatherlink.com 1.10,2013-01-31 00:41:00,
2013-01-30 19:56:00,47.0,46.0,29.51,North,349,9.0,13.0,96,0.09,,,1.96,weatherlink.com 1.10,2013-01-31 00:56:00,
2013-01-30 20:11:00,47.7,47.0,29.54,NNE,19,4.0,11.0,97,0.04,,,1.96,weatherlink.com 1.10,2013-01-31 01:11:00,
2013-01-30 20:26:00,48.0,47.0,29.52,ESE,104,1.0,4.0,97,0.03,,,1.96,weatherlink.com 1.10,2013-01-31 01:26:00,
2013-01-30 20:42:00,47.6,47.0,29.53,ENE,62,2.0,4.0,97,0.01,,,1.96,weatherlink.com 1.10,2013-01-31 01:42:00,
2013-01-30 20:57:00,47.6,47.0,29.52,NE,40,0.0,2.0,97,0.00,,,1.96,weatherlink.com 1.10,2013-01-31 01:57:00,
2013-01-30 21:12:00,47.2,46.0,29.54,SSE,153,2.0,3.0,97,0.01,,,1.97,weatherlink.com 1.10,2013-01-31 02:12:00,
2013-01-30 21:27:00,46.4,45.0,29.53,WSW,249,4.0,6.0,96,0.01,,,1.97,weatherlink.com 1.10,2013-01-31 02:27:00,
2013-01-30 21:42:00,46.4,45.0,29.49,North,360,4.0,6.0,96,0.02,,,1.98,weatherlink.com 1.10,2013-01-31 02:42:00,
2013-01-30 21:57:00,46.5,46.0,29.48,North,354,0.0,4.0,96,0.02,,,1.98,weatherlink.com 1.10,2013-01-31 02:57:00,
2013-01-30 22:13:00,46.3,45.0,29.51,SSE,147,4.0,5.0,95,0.01,,,1.98,weatherlink.com 1.10,2013-01-31 03:13:00,
2013-01-30 22:27:00,45.7,44.0,29.50,SSW,204,3.0,4.0,95,0.01,,,1.98,weatherlink.com 1.10,2013-01-31 03:27:00,
2013-01-30 22:42:00,45.5,44.0,29.52,East,101,0.0,2.0,94,0.01,,,1.99,weatherlink.com 1.10,2013-01-31 03:42:00,
2013-01-30 22:57:00,45.3,43.0,29.53,SSE,168,5.0,6.0,91,0.01,,,1.99,weatherlink.com 1.10,2013-01-31 03:57:00,
2013-01-30 23:12:00,45.6,41.0,29.51,South,187,4.0,12.0,85,0.01,,,1.99,weatherlink.com 1.10,2013-01-31 04:12:00,
2013-01-30 23:27:00,45.5,42.0,29.53,South,186,0.0,7.0,86,0.01,,,1.99,weatherlink.com 1.10,2013-01-31 04:27:00,
2013-01-30 23:42:00,45.3,41.0,29.52,SW,229,1.0,7.0,84,0.00,,,1.99,weatherlink.com 1.10,2013-01-31 04:42:00,
2013-01-30 23:57:00,45.2,40.0,29.55,NNW,347,3.0,4.0,83,0.00,,,1.99,weatherlink.com 1.10,2013-01-31 04:57:00,